Time;durP1;ratioP1;P1;durP2;ratioP2;P2;SDS_P1;SDS_P2;PMS_P1;PMS_P2;Temp;Humidity;BMP_temperature;BMP_pressure;BME280_temperature;BME280_humidity;BME280_pressure;Samples;Min_cycle;Max_cycle;Signal;HPM_P1;HPM_P2
2023/06/01 04:22:33;;;;;;;1.95;1.50;;;;;;;12.62;85.59;100407.53;5089517;28;20336;-68
2023/06/01 04:24:58;;;;;;;2.65;1.75;;;;;;;12.67;85.56;100410.50;5105139;28;20032;-67
2023/06/01 04:27:24;;;;;;;2.47;1.65;;;;;;;12.76;85.84;100414.75;5088243;28;20040;-67
2023/06/01 04:29:50;;;;;;;2.17;1.48;;;;;;;12.84;84.96;100418.34;5089118;28;20080;-68
2023/06/01 04:32:21;;;;;;;3.55;1.88;;;;;;;12.88;84.58;100409.78;5089392;28;20029;-67
2023/06/01 04:34:50;;;;;;;2.83;1.98;;;;;;;12.95;84.40;100415.22;5087933;28;20059;-68
2023/06/01 04:37:20;;;;;;;3.10;1.33;;;;;;;13.02;84.17;100422.31;5087919;28;20089;-68
2023/06/01 04:39:50;;;;;;;2.83;1.75;;;;;;;13.09;84.99;100417.03;5087648;28;20036;-68
2023/06/01 04:42:16;;;;;;;2.42;1.70;;;;;;;13.18;84.90;100420.47;5087828;28;20036;-69
2023/06/01 04:44:45;;;;;;;2.78;2.00;;;;;;;13.25;85.92;100419.56;5087883;28;20040;-69
2023/06/01 04:47:10;;;;;;;12.30;7.72;;;;;;;13.33;85.65;100428.50;5087748;28;20078;-69
2023/06/01 04:49:41;;;;;;;3.90;2.45;;;;;;;13.41;84.52;100425.72;5087597;28;20043;-69
2023/06/01 04:52:07;;;;;;;3.78;2.55;;;;;;;13.47;84.15;100424.97;5087794;28;20036;-69
2023/06/01 04:54:33;;;;;;;3.22;2.25;;;;;;;13.53;82.64;100419.69;5087757;28;20036;-69
2023/06/01 04:56:58;;;;;;;3.03;1.90;;;;;;;13.63;82.11;100419.41;5087580;28;20040;-69
2023/06/01 04:59:24;;;;;;;5.00;2.42;;;;;;;13.71;82.14;100421.97;5088584;28;20411;-66
2023/06/01 05:01:49;;;;;;;3.95;2.20;;;;;;;13.79;81.95;100419.16;5087405;28;20123;-64
2023/06/01 05:04:15;;;;;;;2.28;1.83;;;;;;;13.89;81.25;100424.22;5087510;28;20072;-63
2023/06/01 05:06:40;;;;;;;3.15;2.00;;;;;;;13.96;80.86;100421.59;5087771;28;20036;-64
2023/06/01 05:09:06;;;;;;;3.50;1.50;;;;;;;14.07;80.93;100423.75;5086856;28;20024;-63
2023/06/01 05:11:31;;;;;;;2.03;1.60;;;;;;;14.20;80.39;100423.88;5087302;28;20037;-64
2023/06/01 05:14:01;;;;;;;2.47;1.77;;;;;;;14.36;79.77;100433.50;5087624;28;20036;-64
2023/06/01 05:16:27;;;;;;;5.75;1.65;;;;;;;14.46;79.66;100431.34;5087205;28;20064;-64
2023/06/01 05:18:55;;;;;;;2.03;1.60;;;;;;;14.50;78.97;100431.81;5086930;28;20098;-64
2023/06/01 05:21:21;;;;;;;2.67;1.65;;;;;;;14.55;79.21;100432.06;5087041;28;20042;-64
2023/06/01 05:23:47;;;;;;;3.33;1.80;;;;;;;14.63;79.63;100432.72;5087146;28;20459;-63
2023/06/01 05:26:13;;;;;;;2.92;1.65;;;;;;;14.66;79.13;100432.31;5086965;28;20047;-64
2023/06/01 05:28:38;;;;;;;2.67;1.58;;;;;;;14.74;79.24;100431.38;5086750;28;20043;-64
2023/06/01 05:31:07;;;;;;;4.82;2.30;;;;;;;14.87;78.36;100436.81;5087037;28;20028;-64
2023/06/01 05:33:39;;;;;;;3.35;1.52;;;;;;;15.02;77.43;100427.81;5074986;28;20032;-64
2023/06/01 05:36:05;;;;;;;3.00;1.90;;;;;;;15.00;76.35;100435.25;5073361;28;20040;-61
2023/06/01 05:38:30;;;;;;;3.92;1.80;;;;;;;15.05;76.51;100438.97;5073146;28;20506;-64
2023/06/01 05:40:56;;;;;;;3.47;1.90;;;;;;;15.11;76.93;100432.00;5056713;28;20045;-62
2023/06/01 05:43:21;;;;;;;2.97;1.90;;;;;;;15.14;77.27;100440.47;5073325;28;20040;-64
2023/06/01 05:45:48;;;;;;;3.08;1.73;;;;;;;15.24;77.22;100437.41;5074430;28;20040;-64
2023/06/01 05:48:14;;;;;;;2.40;1.60;;;;;;;15.39;77.25;100440.00;5073267;28;20401;-64
2023/06/01 05:50:42;;;;;;;3.42;1.67;;;;;;;15.53;75.11;100430.97;5073052;28;20070;-64
2023/06/01 05:53:08;;;;;;;2.75;1.48;;;;;;;15.64;73.55;100438.44;5074329;28;20489;-64
2023/06/01 05:55:34;;;;;;;1.90;1.40;;;;;;;15.78;71.81;100436.66;5072966;28;20098;-64
2023/06/01 05:57:59;;;;;;;2.70;1.52;;;;;;;15.85;72.43;100440.19;5072938;28;20131;-64
2023/06/01 06:00:25;;;;;;;1.92;1.50;;;;;;;15.99;72.96;100431.13;5072532;28;20037;-64
2023/06/01 06:02:51;;;;;;;2.33;1.75;;;;;;;15.95;71.04;100443.28;5074133;28;20040;-65
2023/06/01 06:05:16;;;;;;;2.22;1.55;;;;;;;16.00;71.21;100435.44;5074111;28;20098;-65
2023/06/01 06:07:42;;;;;;;2.13;1.50;;;;;;;16.09;70.28;100437.94;5074202;28;20032;-64
2023/06/01 06:10:08;;;;;;;3.35;1.67;;;;;;;16.10;70.22;100439.59;5073723;28;20404;-64
2023/06/01 06:12:33;;;;;;;4.88;1.95;;;;;;;16.11;70.41;100435.91;5074132;28;20028;-64
2023/06/01 06:14:59;;;;;;;5.18;1.80;;;;;;;16.12;70.48;100430.31;5073887;28;20499;-64
2023/06/01 06:17:24;;;;;;;2.28;1.45;;;;;;;16.19;69.99;100435.69;5073786;28;20040;-64
2023/06/01 06:19:50;;;;;;;1.90;1.23;;;;;;;16.27;71.56;100430.94;5073474;28;20503;-64
2023/06/01 06:22:15;;;;;;;4.40;1.67;;;;;;;16.35;69.38;100427.22;5073703;28;20037;-64
2023/06/01 06:24:42;;;;;;;2.53;1.80;;;;;;;16.39;69.47;100428.47;5073740;28;20036;-64
2023/06/01 06:27:08;;;;;;;1.83;1.50;;;;;;;16.51;68.70;100429.50;5072535;28;20040;-63
2023/06/01 06:29:34;;;;;;;2.42;1.30;;;;;;;16.62;69.96;100440.66;5073302;28;20032;-64
2023/06/01 06:31:59;;;;;;;2.55;1.52;;;;;;;16.74;68.91;100436.31;5073529;28;20402;-65
2023/06/01 06:34:25;;;;;;;2.92;1.58;;;;;;;16.86;66.11;100428.44;5073511;28;20041;-64
2023/06/01 06:36:52;;;;;;;2.03;1.33;;;;;;;16.90;65.54;100425.13;5073491;28;20036;-63
2023/06/01 06:39:18;;;;;;;1.55;1.10;;;;;;;16.95;65.56;100419.97;5073216;28;20393;-65
2023/06/01 06:41:44;;;;;;;2.17;1.50;;;;;;;16.98;64.88;100427.59;5073498;28;20039;-65
2023/06/01 06:44:09;;;;;;;1.92;1.35;;;;;;;17.11;64.60;100423.22;5072415;28;20033;-63
2023/06/01 06:46:35;;;;;;;2.60;1.33;;;;;;;17.29;63.30;100426.06;5073286;28;20032;-63
2023/06/01 06:49:00;;;;;;;2.42;1.70;;;;;;;17.25;62.75;100424.81;5073010;28;20040;-63
2023/06/01 06:51:26;;;;;;;3.20;1.67;;;;;;;17.24;62.92;100426.69;5073185;28;20044;-64
2023/06/01 06:53:52;;;;;;;2.10;1.67;;;;;;;17.30;63.40;100414.25;5073243;28;20082;-64
2023/06/01 06:56:17;;;;;;;2.72;1.40;;;;;;;17.38;64.20;100416.69;5073088;28;20037;-64
2023/06/01 06:58:43;;;;;;;1.70;1.13;;;;;;;17.51;63.91;100424.72;5072851;28;20089;-67
2023/06/01 07:01:09;;;;;;;2.72;1.27;;;;;;;17.69;60.62;100420.50;5071737;28;20070;-63
2023/06/01 07:03:35;;;;;;;1.80;1.23;;;;;;;17.63;60.51;100414.91;5072949;28;20044;-64
2023/06/01 07:06:01;;;;;;;2.55;1.40;;;;;;;17.76;60.32;100424.84;5072892;28;20092;-64
2023/06/01 07:08:26;;;;;;;1.80;1.23;;;;;;;17.96;59.38;100424.72;5072869;28;20075;-61
2023/06/01 07:10:53;;;;;;;1.90;1.15;;;;;;;17.97;58.81;100412.88;5072761;28;20033;-63
2023/06/01 07:13:19;;;;;;;2.45;1.48;;;;;;;17.99;59.57;100426.97;5072776;28;20086;-65
2023/06/01 07:15:44;;;;;;;1.80;1.13;;;;;;;18.05;59.63;100420.69;5072686;28;20041;-65
2023/06/01 07:18:09;;;;;;;1.95;1.30;;;;;;;18.13;60.09;100425.84;5072669;28;20040;-65
2023/06/01 07:20:35;;;;;;;1.90;1.27;;;;;;;18.28;59.25;100422.81;5072358;28;20093;-65
2023/06/01 07:23:00;;;;;;;2.00;1.33;;;;;;;18.41;59.21;100427.28;5072642;28;20533;-63
2023/06/01 07:25:26;;;;;;;2.45;1.30;;;;;;;18.40;58.99;100425.66;5072593;28;20045;-65
2023/06/01 07:27:52;;;;;;;3.13;1.63;;;;;;;18.54;60.18;100432.56;5072523;28;20150;-64
2023/06/01 07:30:17;;;;;;;3.58;1.42;;;;;;;18.60;59.35;100425.47;5072129;28;20425;-64
2023/06/01 07:32:43;;;;;;;1.77;1.20;;;;;;;18.80;59.57;100425.31;5072446;28;20032;-64
2023/06/01 07:35:09;;;;;;;2.28;1.50;;;;;;;18.89;59.19;100418.56;5072316;28;20401;-64
2023/06/01 07:37:35;;;;;;;4.05;1.63;;;;;;;18.93;57.25;100423.31;5072363;28;20113;-63
2023/06/01 07:40:00;;;;;;;3.35;1.85;;;;;;;18.89;56.92;100415.88;5072093;28;20477;-64
2023/06/01 07:42:26;;;;;;;1.98;1.48;;;;;;;19.10;57.04;100420.81;5072291;28;20036;-64
2023/06/01 07:44:51;;;;;;;2.38;1.42;;;;;;;19.24;56.10;100424.22;5072285;28;20124;-64
2023/06/01 07:47:16;;;;;;;2.03;1.38;;;;;;;19.35;57.79;100426.13;5071990;28;20076;-64
2023/06/01 07:49:42;;;;;;;2.13;1.40;;;;;;;19.39;56.42;100421.13;5071918;28;20067;-64
2023/06/01 07:52:08;;;;;;;1.77;1.48;;;;;;;19.58;57.44;100422.78;5072086;28;20064;-64
2023/06/01 07:54:37;;;;;;;3.97;1.58;;;;;;;19.70;55.95;100423.66;5072121;28;20138;-65
2023/06/01 07:57:04;;;;;;;3.20;1.90;;;;;;;19.59;55.01;100416.31;5071799;28;20119;-63
2023/06/01 07:59:30;;;;;;;4.30;1.45;;;;;;;19.73;54.99;100423.19;5071751;28;20036;-65
2023/06/01 08:01:56;;;;;;;4.28;1.77;;;;;;;19.85;54.40;100422.41;5070869;28;20115;-65
2023/06/01 08:04:22;;;;;;;2.40;1.77;;;;;;;19.86;55.32;100424.88;5072019;28;20079;-64
2023/06/01 08:06:52;;;;;;;2.53;1.65;;;;;;;19.90;53.75;100426.09;5071873;28;20044;-64
2023/06/01 08:09:20;;;;;;;2.05;1.30;;;;;;;19.99;54.61;100424.69;5071701;28;20397;-64
2023/06/01 08:11:45;;;;;;;2.55;1.27;;;;;;;20.19;53.56;100424.38;5071897;28;20126;-65
2023/06/01 08:14:11;;;;;;;2.63;1.40;;;;;;;20.16;52.62;100416.75;5071867;28;20119;-65
2023/06/01 08:16:36;;;;;;;2.03;1.27;;;;;;;20.28;51.92;100420.31;5071786;28;20036;-65
2023/06/01 08:19:03;;;;;;;4.13;1.70;;;;;;;20.58;52.11;100411.28;5071556;28;20041;-65
2023/06/01 08:21:28;;;;;;;3.78;1.90;;;;;;;20.70;52.06;100406.72;5071784;28;20055;-65
2023/06/01 08:23:57;;;;;;;5.13;1.52;;;;;;;20.89;51.10;100409.28;5071811;28;20101;-64
2023/06/01 08:26:23;;;;;;;2.30;1.50;;;;;;;21.08;51.42;100399.97;5071680;28;20066;-64
2023/06/01 08:28:51;;;;;;;2.42;1.58;;;;;;;21.25;50.88;100403.56;5071501;28;20097;-64
2023/06/01 08:31:21;;;;;;;2.38;1.52;;;;;;;21.25;49.15;100398.13;5071655;28;20109;-63
2023/06/01 08:33:48;;;;;;;2.85;1.60;;;;;;;21.50;48.72;100403.28;5071696;28;20070;-63
2023/06/01 08:36:14;;;;;;;2.47;1.70;;;;;;;21.36;48.19;100401.91;5071702;28;20082;-63
2023/06/01 08:38:39;;;;;;;2.97;1.67;;;;;;;21.59;48.06;100395.59;5071483;28;20119;-63
2023/06/01 08:41:20;;;;;;;4.10;2.10;;;;;;;21.73;48.19;100396.97;5071665;28;20064;-63
2023/06/01 08:43:58;;;;;;;3.53;1.90;;;;;;;21.90;47.60;100388.84;5071726;28;20028;-63
2023/06/01 08:46:25;;;;;;;3.15;1.77;;;;;;;22.09;47.40;100392.19;5071495;28;20037;-63
2023/06/01 08:48:55;;;;;;;5.90;1.63;;;;;;;22.15;47.38;100392.03;5071332;28;20039;-63
2023/06/01 08:51:22;;;;;;;2.40;1.67;;;;;;;22.11;46.98;100392.78;5071441;28;20112;-63
2023/06/01 08:53:49;;;;;;;2.83;1.60;;;;;;;22.13;47.81;100390.63;5071541;28;20060;-63
2023/06/01 08:56:14;;;;;;;2.83;1.50;;;;;;;22.27;47.47;100385.69;5071369;28;20045;-64
2023/06/01 08:58:41;;;;;;;3.28;1.40;;;;;;;22.52;46.41;100383.38;5071134;28;20051;-63
2023/06/01 09:01:07;;;;;;;2.75;1.60;;;;;;;22.58;45.62;100381.56;5071401;28;20044;-64
2023/06/01 09:03:32;;;;;;;3.22;1.70;;;;;;;22.74;45.51;100380.72;5071474;28;20048;-64
2023/06/01 09:05:58;;;;;;;3.45;1.63;;;;;;;22.83;45.25;100383.84;5071344;28;20047;-63
2023/06/01 09:08:24;;;;;;;3.15;1.83;;;;;;;23.02;44.42;100382.50;5073253;28;20028;-64
2023/06/01 09:10:49;;;;;;;2.17;1.55;;;;;;;23.24;43.11;100386.03;5075050;28;20072;-63
2023/06/01 09:13:30;;;;;;;3.75;1.73;;;;;;;23.30;43.96;100378.75;5074886;28;20071;-63
2023/06/01 09:15:55;;;;;;;2.88;1.88;;;;;;;23.34;43.52;100379.06;5074986;28;20036;-64
2023/06/01 09:18:21;;;;;;;2.50;1.90;;;;;;;23.51;43.07;100385.25;5073334;28;20125;-64
2023/06/01 09:20:46;;;;;;;3.95;1.60;;;;;;;23.63;42.74;100382.41;5074826;28;20043;-64
2023/06/01 09:23:23;;;;;;;3.33;1.80;;;;;;;23.77;42.43;100381.75;5074848;28;20032;-63
2023/06/01 09:26:03;;;;;;;3.47;1.90;;;;;;;23.93;42.03;100385.44;5074764;28;20401;-64
2023/06/01 09:28:29;;;;;;;2.92;1.65;;;;;;;24.20;41.41;100385.41;5074432;28;20066;-64
2023/06/01 09:30:54;;;;;;;3.63;1.67;;;;;;;24.04;40.82;100381.72;5074560;28;20151;-64
2023/06/01 09:33:20;;;;;;;2.03;1.58;;;;;;;24.45;41.05;100379.38;5074675;28;20130;-63
2023/06/01 09:35:47;;;;;;;2.38;1.88;;;;;;;24.68;40.97;100380.84;5074607;28;20033;-64
2023/06/01 09:38:24;;;;;;;3.03;2.00;;;;;;;24.72;40.68;100381.97;5074412;28;20425;-64
2023/06/01 09:41:01;;;;;;;3.63;1.83;;;;;;;24.93;39.58;100373.91;5074483;28;20036;-64
2023/06/01 09:43:26;;;;;;;3.30;2.03;;;;;;;24.87;39.58;100378.50;5074591;28;20040;-64
2023/06/01 09:46:05;;;;;;;2.22;1.77;;;;;;;24.99;39.34;100370.13;5074380;28;20029;-63
2023/06/01 09:48:31;;;;;;;2.78;1.83;;;;;;;25.22;38.97;100355.25;5074097;28;20029;-64
2023/06/01 09:50:56;;;;;;;2.20;1.73;;;;;;;25.56;38.61;100366.53;5074184;28;20379;-64
2023/06/01 09:53:22;;;;;;;3.15;2.08;;;;;;;25.70;37.83;100354.03;5074347;28;20115;-65
2023/06/01 09:55:59;;;;;;;2.60;2.03;;;;;;;25.87;36.83;100356.50;5074240;28;20194;-64
2023/06/01 09:58:24;;;;;;;3.05;1.80;;;;;;;25.92;37.63;100345.59;5074016;28;20044;-65
2023/06/01 10:00:51;;;;;;;2.47;1.90;;;;;;;26.02;37.62;100348.34;5074227;28;20028;-65
2023/06/01 10:03:18;;;;;;;2.20;1.90;;;;;;;26.36;37.46;100348.59;5074066;28;20033;-64
2023/06/01 10:05:44;;;;;;;3.00;2.00;;;;;;;26.21;37.34;100349.44;5074100;28;20278;-65
2023/06/01 10:08:14;;;;;;;3.20;1.83;;;;;;;26.55;37.65;100340.69;5074050;28;20140;-64
2023/06/01 10:10:43;;;;;;;2.92;1.95;;;;;;;26.61;37.35;100345.03;5073833;28;20532;-64
2023/06/01 10:13:10;;;;;;;3.05;1.73;;;;;;;26.87;36.77;100340.31;5074004;28;20052;-64
2023/06/01 10:15:36;;;;;;;3.03;1.75;;;;;;;27.05;38.37;100345.16;5073830;28;20033;-65
2023/06/01 10:18:03;;;;;;;3.35;2.35;;;;;;;27.36;34.91;100333.25;5073663;28;20128;-65
2023/06/01 10:20:32;;;;;;;2.10;1.67;;;;;;;27.52;35.32;100332.91;5073458;28;20119;-65
2023/06/01 10:22:59;;;;;;;3.08;1.77;;;;;;;27.91;35.26;100337.56;5073783;28;20040;-65
2023/06/01 10:25:25;;;;;;;3.88;2.25;;;;;;;27.83;34.05;100332.69;5073547;28;20123;-65
2023/06/01 10:28:21;;;;;;;4.37;2.20;;;;;;;28.34;34.04;100329.53;5073565;28;20036;-63
2023/06/01 10:31:25;;;;;;;3.73;2.00;;;;;;;28.60;33.68;100324.59;5064735;28;20109;-63
2023/06/01 10:33:55;;;;;;;5.20;2.05;;;;;;;28.64;33.71;100318.25;5073560;28;20045;-64
2023/06/01 10:36:21;;;;;;;3.17;2.10;;;;;;;29.05;32.79;100319.72;5073329;28;20448;-64
2023/06/01 10:38:46;;;;;;;3.33;2.00;;;;;;;29.31;32.41;100301.78;5073014;28;20043;-65
2023/06/01 10:41:44;;;;;;;2.97;1.92;;;;;;;29.24;32.65;100298.59;5073419;28;20032;-64
2023/06/01 10:44:41;;;;;;;4.03;2.25;;;;;;;29.51;32.79;100310.84;5050040;28;20147;-65
2023/06/01 10:47:12;;;;;;;3.85;2.00;;;;;;;29.99;31.43;100309.53;5073054;28;20043;-64
2023/06/01 10:50:01;;;;;;;3.40;2.25;;;;;;;30.18;30.85;100308.66;5072824;28;20488;-64
2023/06/01 10:52:27;;;;;;;4.43;2.35;;;;;;;30.26;29.83;100311.56;5067220;28;20150;-65
2023/06/01 10:55:13;;;;;;;3.10;1.88;;;;;;;30.22;28.73;100304.22;5073348;28;20028;-64
2023/06/01 10:57:48;;;;;;;4.83;2.20;;;;;;;30.32;29.13;100305.94;5065723;28;20198;-65
2023/06/01 11:00:14;;;;;;;2.97;1.80;;;;;;;30.47;29.18;100301.00;5072882;28;20405;-63
2023/06/01 11:02:48;;;;;;;2.80;2.05;;;;;;;30.99;27.62;100303.53;5072833;28;20125;-64
2023/06/01 11:05:43;;;;;;;2.28;1.70;;;;;;;31.40;26.97;100300.72;5072979;28;20032;-64
2023/06/01 11:08:21;;;;;;;2.88;1.92;;;;;;;31.11;27.07;100300.28;5072882;28;20051;-64
2023/06/01 11:10:54;;;;;;;3.20;1.92;;;;;;;31.07;27.80;100291.81;5072607;28;20044;-63
2023/06/01 11:13:29;;;;;;;2.67;2.17;;;;;;;31.46;27.96;100288.47;5072590;28;20044;-62
2023/06/01 11:16:10;;;;;;;3.25;2.00;;;;;;;31.90;27.72;100291.56;5072645;28;20044;-64
2023/06/01 11:19:00;;;;;;;3.95;2.28;;;;;;;31.79;26.66;100286.31;5072302;28;20478;-63
2023/06/01 11:21:27;;;;;;;2.42;1.77;;;;;;;31.43;26.11;100285.50;5072689;28;20028;-63
2023/06/01 11:23:54;;;;;;;2.10;1.55;;;;;;;31.12;25.35;100286.19;5072509;28;20035;-63
2023/06/01 11:26:29;;;;;;;3.95;1.75;;;;;;;31.74;26.69;100283.66;5072333;28;20040;-64
2023/06/01 11:29:03;;;;;;;2.45;1.60;;;;;;;31.74;25.47;100282.84;5072216;28;20051;-63
2023/06/01 11:31:35;;;;;;;3.60;1.73;;;;;;;31.90;25.38;100278.63;5071081;28;20068;-63
2023/06/01 11:34:01;;;;;;;5.93;1.80;;;;;;;31.74;26.27;100272.63;5072759;28;20037;-63
2023/06/01 11:36:26;;;;;;;4.00;1.77;;;;;;;31.93;25.04;100280.72;5072408;28;20207;-63
2023/06/01 11:38:55;;;;;;;2.27;1.50;;;;;;;32.28;23.26;100278.97;5072596;28;20071;-63
2023/06/01 11:41:22;;;;;;;2.08;1.38;;;;;;;32.34;23.58;100282.41;5071151;28;20032;-63
2023/06/01 11:43:55;;;;;;;2.75;1.70;;;;;;;32.57;22.82;100272.94;5072288;28;20083;-63
2023/06/01 11:46:21;;;;;;;2.40;1.27;;;;;;;32.80;23.12;100264.56;5072191;28;20039;-62
2023/06/01 11:49:13;;;;;;;2.80;1.65;;;;;;;32.62;23.17;100264.53;5071650;28;20041;-62
2023/06/01 11:51:39;;;;;;;2.40;1.45;;;;;;;31.37;25.14;100260.06;5070038;28;20057;-62
2023/06/01 11:54:05;;;;;;;2.50;1.53;;;;;;;31.89;24.54;100252.22;5072117;28;20040;-62
2023/06/01 11:56:32;;;;;;;1.75;1.45;;;;;;;32.32;24.72;100251.59;5072242;28;20044;-63
2023/06/01 11:58:58;;;;;;;;;;;;;;;32.36;23.49;100258.13;5072194;28;20132;-64
2023/06/01 12:01:24;;;;;;;2.45;1.50;;;;;;;32.78;23.65;100244.78;5072096;28;20053;-64
2023/06/01 12:03:50;;;;;;;2.65;1.33;;;;;;;32.73;24.20;100259.50;5070833;28;20556;-64
2023/06/01 12:06:22;;;;;;;2.40;1.33;;;;;;;31.96;23.06;100244.31;5071906;28;20111;-64
2023/06/01 12:08:51;;;;;;;2.45;1.38;;;;;;;32.63;22.58;100244.09;5071859;28;20390;-64
2023/06/01 12:11:19;;;;;;;2.03;1.38;;;;;;;32.72;23.40;100246.88;5071821;28;20033;-64
2023/06/01 12:13:47;;;;;;;1.80;1.20;;;;;;;33.12;22.76;100242.06;5071937;28;20456;-64
2023/06/01 12:16:12;;;;;;;2.30;1.38;;;;;;;32.98;22.91;100227.63;5071823;28;20044;-64
2023/06/01 12:18:37;;;;;;;1.50;1.37;;;;;;;33.08;22.74;100227.31;5071539;28;20040;-64
2023/06/01 12:21:11;;;;;;;1.73;1.27;;;;;;;33.31;22.15;100229.91;5071921;28;20040;-62
2023/06/01 12:23:37;;;;;;;2.40;1.27;;;;;;;33.12;22.11;100227.47;5071951;28;20040;-64
2023/06/01 12:26:03;;;;;;;1.67;1.20;;;;;;;33.30;21.24;100225.53;5071703;28;20040;-63
2023/06/01 12:28:46;;;;;;;1.88;1.30;;;;;;;34.04;21.84;100216.97;5063438;28;20428;-63
2023/06/01 12:31:13;;;;;;;1.75;1.35;;;;;;;34.39;20.59;100216.81;5061639;28;20037;-64
2023/06/01 12:33:40;;;;;;;1.75;1.15;;;;;;;34.23;20.75;100222.09;5060235;28;20128;-64
2023/06/01 12:36:07;;;;;;;2.08;1.35;;;;;;;34.54;19.78;100210.72;5061662;28;20036;-64
2023/06/01 12:38:51;;;;;;;5.07;1.48;;;;;;;34.78;20.84;100218.41;5061432;28;20045;-65
2023/06/01 12:41:18;;;;;;;3.45;1.48;;;;;;;33.21;20.54;100209.78;5062080;28;20039;-64
2023/06/01 12:43:46;;;;;;;;;;;;;;;34.06;20.88;100217.47;5064013;28;20384;-64
2023/06/01 12:46:22;;;;;;;2.10;1.45;;;;;;;33.22;20.39;100208.66;5064675;28;20430;-64
2023/06/01 12:48:49;;;;;;;2.05;1.25;;;;;;;33.74;19.58;100205.84;5065016;28;20029;-63
2023/06/01 12:51:15;;;;;;;2.47;1.23;;;;;;;34.35;20.08;100207.56;5064148;28;20045;-64
2023/06/01 12:53:44;;;;;;;2.20;1.40;;;;;;;34.18;20.42;100201.00;5066203;28;20032;-64
2023/06/01 12:56:11;;;;;;;2.53;1.38;;;;;;;34.16;20.49;100207.97;5065069;28;20028;-64
2023/06/01 12:58:37;;;;;;;2.65;1.30;;;;;;;33.59;21.29;100194.50;5063556;28;20037;-63
2023/06/01 13:01:03;;;;;;;2.55;1.42;;;;;;;31.82;22.27;100194.00;5065703;28;20428;-64
2023/06/01 13:03:29;;;;;;;1.93;1.30;;;;;;;32.59;21.75;100190.72;5064697;28;20402;-63
2023/06/01 13:05:55;;;;;;;1.45;1.20;;;;;;;33.09;21.84;100187.56;5064000;28;20055;-63
2023/06/01 13:08:22;;;;;;;2.30;1.73;;;;;;;33.59;22.08;100183.47;5065553;28;20028;-63
2023/06/01 13:10:48;;;;;;;2.08;1.30;;;;;;;33.54;21.73;100189.97;5064226;28;20055;-64
2023/06/01 13:13:13;;;;;;;2.25;1.38;;;;;;;33.26;22.72;100183.97;5064188;28;20040;-64
2023/06/01 13:15:40;;;;;;;5.67;1.70;;;;;;;33.48;21.99;100181.03;5065549;28;20042;-64
2023/06/01 13:18:05;;;;;;;1.88;1.38;;;;;;;32.44;22.04;100182.91;5064114;28;20033;-64
2023/06/01 13:20:31;;;;;;;1.77;1.40;;;;;;;32.31;23.40;100184.63;5063957;28;20048;-63
2023/06/01 13:22:57;;;;;;;2.60;1.40;;;;;;;31.97;22.58;100174.31;5065737;28;20051;-62
2023/06/01 13:25:23;;;;;;;2.17;1.30;;;;;;;31.64;23.63;100178.50;5063534;28;20033;-64
2023/06/01 13:27:48;;;;;;;2.17;1.20;;;;;;;31.45;23.94;100176.75;5074874;28;20044;-64
2023/06/01 13:30:14;;;;;;;2.47;1.30;;;;;;;31.34;24.71;100169.88;5074623;28;20051;-63
2023/06/01 13:32:41;;;;;;;1.80;1.27;;;;;;;31.04;24.69;100171.44;5073530;28;20494;-64
2023/06/01 13:35:06;;;;;;;1.87;1.10;;;;;;;30.91;24.03;100172.25;5074753;28;20114;-64
2023/06/01 13:37:32;;;;;;;1.63;1.13;;;;;;;30.92;24.38;100162.91;5074581;28;20082;-64
2023/06/01 13:39:58;;;;;;;2.90;1.40;;;;;;;30.38;24.46;100159.13;5074186;28;20040;-63
2023/06/01 13:42:23;;;;;;;1.80;1.33;;;;;;;29.89;25.27;100147.72;5070346;28;20033;-62
2023/06/01 13:44:48;;;;;;;2.65;1.95;;;;;;;29.43;25.94;100151.28;5054663;28;20029;-62
2023/06/01 13:47:15;;;;;;;2.85;1.80;;;;;;;29.65;25.65;100155.31;5054810;28;20524;-62
2023/06/01 13:49:42;;;;;;;2.60;1.57;;;;;;;29.95;25.59;100148.44;5054319;28;20041;-62
2023/06/01 13:52:08;;;;;;;3.38;1.42;;;;;;;29.75;24.61;100146.91;5054356;28;20094;-62
2023/06/01 13:54:33;;;;;;;2.40;1.75;;;;;;;29.74;25.02;100150.75;5053819;28;20049;-62
2023/06/01 13:57:00;;;;;;;2.92;1.52;;;;;;;29.80;24.13;100149.56;5054331;28;20037;-61
2023/06/01 13:59:26;;;;;;;2.22;1.58;;;;;;;29.01;25.20;100144.00;5053952;28;20048;-61
2023/06/01 14:01:51;;;;;;;2.45;1.50;;;;;;;29.09;26.95;100131.56;5054347;28;20029;-61
2023/06/01 14:04:17;;;;;;;2.03;1.50;;;;;;;29.32;27.70;100133.34;5054261;28;20478;-61
2023/06/01 14:06:42;;;;;;;2.85;1.50;;;;;;;29.11;26.38;100126.59;5054042;28;20041;-61
2023/06/01 14:09:09;;;;;;;2.42;1.50;;;;;;;29.13;27.36;100116.13;5053706;28;20033;-61
2023/06/01 14:11:34;;;;;;;3.75;1.58;;;;;;;29.09;26.19;100121.41;5053986;28;20032;-62
2023/06/01 14:14:00;;;;;;;2.58;1.60;;;;;;;29.04;26.78;100118.75;5054095;28;20406;-61
2023/06/01 14:16:25;;;;;;;1.75;1.30;;;;;;;28.80;26.45;100126.22;5053959;28;20394;-62
2023/06/01 14:18:51;;;;;;;3.00;1.48;;;;;;;29.07;27.51;100109.91;5053659;28;20089;-62
2023/06/01 14:21:16;;;;;;;2.08;1.40;;;;;;;29.05;27.47;100114.88;5053840;28;20041;-61
2023/06/01 14:23:44;;;;;;;2.22;1.40;;;;;;;28.99;27.84;100120.75;5053763;28;20092;-62
2023/06/01 14:26:09;;;;;;;3.72;2.00;;;;;;;28.85;29.38;100118.75;5053727;28;20402;-60
2023/06/01 14:28:35;;;;;;;2.13;1.42;;;;;;;28.63;29.02;100110.31;5053307;28;20041;-61
2023/06/01 14:31:00;;;;;;;2.47;1.70;;;;;;;28.82;29.80;100107.53;5053504;28;20048;-62
2023/06/01 14:33:26;;;;;;;2.38;1.60;;;;;;;28.68;29.36;100104.75;5053702;28;20041;-57
2023/06/01 14:35:52;;;;;;;1.70;1.38;;;;;;;28.58;29.55;100110.38;5053583;28;20445;-61
2023/06/01 14:38:17;;;;;;;3.05;1.70;;;;;;;28.45;29.36;100100.16;5053255;28;20119;-61
2023/06/01 14:40:43;;;;;;;2.38;1.50;;;;;;;28.55;29.33;100106.28;5052355;28;20048;-61
2023/06/01 14:43:08;;;;;;;2.33;1.58;;;;;;;28.50;29.05;100100.09;5053407;28;20045;-66
2023/06/01 14:45:34;;;;;;;3.83;1.60;;;;;;;28.51;29.66;100101.72;5053372;28;20522;-63
2023/06/01 14:47:59;;;;;;;3.10;1.88;;;;;;;28.41;31.08;100086.22;5053482;28;20047;-61
2023/06/01 14:50:25;;;;;;;1.75;1.33;;;;;;;28.59;29.55;100090.09;5053109;28;20045;-63
2023/06/01 14:52:50;;;;;;;2.42;1.58;;;;;;;28.51;30.71;100079.81;5053067;28;20056;-62
2023/06/01 14:55:16;;;;;;;2.88;1.75;;;;;;;28.54;29.87;100090.16;5053178;28;20049;-63
2023/06/01 14:57:42;;;;;;;2.03;1.50;;;;;;;28.50;29.83;100084.47;5053156;28;20051;-62
2023/06/01 15:00:08;;;;;;;4.15;1.52;;;;;;;28.32;30.92;100082.53;5052795;28;20089;-60
2023/06/01 15:02:34;;;;;;;2.10;1.50;;;;;;;28.34;29.73;100077.56;5053065;28;20051;-62
2023/06/01 15:05:00;;;;;;;3.92;1.73;;;;;;;28.28;30.65;100084.19;5052077;28;20128;-62
2023/06/01 15:07:25;;;;;;;3.28;1.90;;;;;;;28.07;30.12;100065.31;5052741;28;20052;-61
2023/06/01 15:09:52;;;;;;;2.30;1.73;;;;;;;28.36;30.65;100072.59;5052513;28;20025;-61
2023/06/01 15:12:18;;;;;;;2.30;1.85;;;;;;;28.05;30.08;100072.19;5052688;28;20048;-63
2023/06/01 15:14:44;;;;;;;2.65;1.52;;;;;;;28.00;30.25;100075.00;5052729;28;20028;-61
2023/06/01 15:17:10;;;;;;;3.47;1.60;;;;;;;27.94;30.23;100070.69;5052603;28;20478;-60
2023/06/01 15:19:36;;;;;;;3.28;1.73;;;;;;;28.17;30.46;100069.00;5052541;28;20037;-61
2023/06/01 15:22:01;;;;;;;3.72;1.92;;;;;;;28.03;30.09;100072.47;5052486;28;20086;-62
2023/06/01 15:24:26;;;;;;;2.50;1.48;;;;;;;28.04;30.79;100070.56;5052565;28;20136;-60
2023/06/01 15:26:52;;;;;;;3.08;1.92;;;;;;;28.07;30.28;100064.50;5052592;28;20505;-62
2023/06/01 15:29:18;;;;;;;3.33;1.67;;;;;;;27.87;30.16;100064.75;5052258;28;20041;-59
2023/06/01 15:31:43;;;;;;;2.57;1.87;;;;;;;27.92;30.33;100068.25;5052381;28;20127;-61
2023/06/01 15:34:10;;;;;;;2.50;1.70;;;;;;;27.93;30.08;100058.09;5052355;28;20068;-63
2023/06/01 15:36:36;;;;;;;3.33;1.60;;;;;;;28.10;30.25;100061.16;5052212;28;20044;-61
2023/06/01 15:39:01;;;;;;;3.85;1.98;;;;;;;27.95;30.34;100050.41;5051997;28;20036;-62
2023/06/01 15:41:27;;;;;;;2.53;1.50;;;;;;;27.69;31.00;100050.72;5052257;28;20029;-61
2023/06/01 15:43:53;;;;;;;2.65;1.83;;;;;;;27.77;29.74;100055.53;5051033;28;20037;-63
2023/06/01 15:46:18;;;;;;;1.50;1.30;;;;;;;27.49;30.07;100059.13;5052136;28;20043;-62
2023/06/01 15:48:44;;;;;;;2.10;1.60;;;;;;;27.55;29.91;100055.22;5051904;28;20481;-63
2023/06/01 15:51:09;;;;;;;2.08;1.52;;;;;;;27.61;31.11;100045.88;5052009;28;20049;-63